Delavan, WI (53115)

9:11 AM CST on February 21, 2017 (GMT -0600)
Delavan Township | | Change Station

Elev 902 ft 42.61 °N, 88.62 °W | Updated 38 seconds ago

Mostly Cloudy
Mostly Cloudy
49.8 °F
Feels Like 49 °F
N
3.2
Wind Variable Wind from WNW

Today
High -- | Low -- °F
--% Chance of Precip.
Yesterday
High -- | Low -- °F
Precip. -- in
Pressure 29.94 in
Visibility 10.0 miles
Clouds Overcast 1100 ft
Windchill 49 °F
Dew Point 47 °F
Humidity 90%
Rainfall 0.14 in
Snow Depth Not available.
6:42 AM 5:34 PM
Waning Crescent, 24% visible
METAR KBUU 211455Z AUTO 32005KT 10SM OVC011 12/11 A2994 RMK AO2 T01150105
Pressure 29.94 in
Visibility 10.0 miles
Clouds Overcast 1100 ft
Windchill 49 °F
Dew Point 47 °F
Humidity 90%
Rainfall 0.14 in
Snow Depth Not available.
6:42 AM 5:34 PM
Waning Crescent, 24% visible
METAR KBUU 211455Z AUTO 32005KT 10SM OVC011 12/11 A2994 RMK AO2 T01150105

Get Your Daily Forecast Email!

Thanks for signing up!

Be on the lookout for a verification email in your inbox.

You'll start receiving the daily forecast at 8 AM.

×

10-Day Weather Forecast

Almanac

Astronomy

Feb. 21, 2017 Rise Set
Actual Time
Civil Twilight
Nautical Twilight
Astronomical Twilight
Moon
Length of Visible Light
Length of Day
Tomorrow will be .
, % of the Moon is Illuminated

Today's Extremes

State Highs State Lows

Community

WunderPhotos

Upload Photos

1,962,540 photos uploaded!

WunderBlog® & News

Nearby

Air Quality

  Air Quality AQ Index Pollutant
Not available.

Snow Depth

Station Depth Elevation

Earthquake Activity

City Distance Mag. Time & Date
Minimum magnitude displayed is 2.5.

Coastal Water Temperatures

Place Temperature

Stations

Nearby Weather Stations

Station Location Temp. Windchill Dew Point Humidity Wind Precip. Elev Updated Type
                   

Watches & Warnings

There are currently no watches in effect.